Time,TemperatureF,DewpointF,PressureIn,WindDirection,WindDirectionDegrees,WindSpeedMPH,WindSpeedGustMPH,Humidity,HourlyPrecipIn,Conditions,Clouds,dailyrainin,SoftwareType,DateUTC
2013-03-23 00:00:00,34.1,30.6,30.04,NNE,22,3.0,7.0,87,0.00,,,0.00,VWS V14.00,2013-03-23 05:00:00,
2013-03-23 00:05:00,34.1,30.4,30.04,NE,45,4.0,8.0,86,0.00,,,0.00,VWS V14.00,2013-03-23 05:05:00,
2013-03-23 00:10:00,34.1,30.4,30.04,NE,45,1.0,4.0,86,0.00,,,0.00,VWS V14.00,2013-03-23 05:10:00,
2013-03-23 00:15:00,34.0,30.3,30.04,NE,45,3.0,7.0,86,0.00,,,0.00,VWS V14.00,2013-03-23 05:15:00,
2013-03-23 00:20:00,34.0,30.3,30.04,NE,45,3.0,7.0,86,0.00,,,0.00,VWS V14.00,2013-03-23 05:20:00,
2013-03-23 00:25:00,34.0,30.3,30.04,NE,45,3.0,7.0,86,0.00,,,0.00,VWS V14.00,2013-03-23 05:25:00,
2013-03-23 00:30:00,33.9,30.2,30.04,NNE,22,3.0,7.0,86,0.00,,,0.00,VWS V14.00,2013-03-23 05:30:00,
2013-03-23 00:35:00,33.9,30.2,30.04,NE,45,2.0,5.0,86,0.00,,,0.00,VWS V14.00,2013-03-23 05:35:00,
2013-03-23 00:40:00,33.9,30.2,30.04,NE,45,3.0,7.0,86,0.00,,,0.00,VWS V14.00,2013-03-23 05:40:00,
2013-03-23 00:45:00,33.9,30.2,30.04,NE,45,3.0,7.0,86,0.00,,,0.00,VWS V14.00,2013-03-23 05:45:00,
2013-03-23 00:50:00,33.9,30.2,30.04,NE,45,2.0,5.0,86,0.00,,,0.00,VWS V14.00,2013-03-23 05:50:00,
2013-03-23 00:55:00,33.9,30.2,30.03,NE,45,3.0,7.0,86,0.00,,,0.00,VWS V14.00,2013-03-23 05:55:00,
2013-03-23 01:00:00,33.9,30.2,30.04,NE,45,4.0,7.0,86,0.00,,,0.00,VWS V14.00,2013-03-23 06:00:00,
2013-03-23 01:05:00,33.9,30.2,30.04,NNE,22,3.0,8.0,86,0.00,,,0.00,VWS V14.00,2013-03-23 06:05:00,
2013-03-23 01:10:00,33.9,30.2,30.04,NNE,22,3.0,7.0,86,0.00,,,0.00,VWS V14.00,2013-03-23 06:10:00,
2013-03-23 01:15:00,33.9,30.2,30.04,NNE,22,4.0,7.0,86,0.00,,,0.00,VWS V14.00,2013-03-23 06:15:00,
2013-03-23 01:20:00,33.9,30.2,30.04,NE,45,3.0,8.0,86,0.00,,,0.00,VWS V14.00,2013-03-23 06:20:00,
2013-03-23 01:25:00,33.9,30.2,30.04,NE,45,3.0,6.0,86,0.00,,,0.00,VWS V14.00,2013-03-23 06:25:00,
2013-03-23 01:30:00,33.8,30.1,30.04,NE,45,3.0,7.0,86,0.00,,,0.00,VWS V14.00,2013-03-23 06:30:00,
2013-03-23 01:35:00,33.8,30.1,30.03,NE,45,4.0,8.0,86,0.00,,,0.00,VWS V14.00,2013-03-23 06:35:00,
2013-03-23 01:40:00,33.8,30.1,30.03,NE,45,3.0,6.0,86,0.00,,,0.00,VWS V14.00,2013-03-23 06:40:00,
2013-03-23 01:45:00,33.8,30.1,30.03,NE,45,4.0,9.0,86,0.00,,,0.00,VWS V14.00,2013-03-23 06:45:00,
2013-03-23 01:50:00,33.8,30.1,30.03,NE,45,4.0,9.0,86,0.00,,,0.00,VWS V14.00,2013-03-23 06:50:00,
2013-03-23 01:55:00,33.8,30.1,30.03,NE,45,4.0,8.0,86,0.00,,,0.00,VWS V14.00,2013-03-23 06:55:00,
2013-03-23 02:00:00,33.8,30.1,30.03,NE,45,3.0,8.0,86,0.00,,,0.00,VWS V14.00,2013-03-23 07:00:00,
2013-03-23 02:05:00,33.7,30.0,30.03,NE,45,3.0,8.0,86,0.00,,,0.00,VWS V14.00,2013-03-23 07:05:00,
2013-03-23 02:10:00,33.7,30.0,30.03,NE,45,4.0,9.0,86,0.00,,,0.00,VWS V14.00,2013-03-23 07:10:00,
2013-03-23 02:15:00,33.7,30.0,30.03,NE,45,4.0,10.0,86,0.00,,,0.00,VWS V14.00,2013-03-23 07:15:00,
2013-03-23 02:20:00,33.7,30.0,30.03,NE,45,4.0,9.0,86,0.00,,,0.00,VWS V14.00,2013-03-23 07:20:00,
2013-03-23 02:25:00,33.7,30.0,30.03,NE,45,4.0,9.0,86,0.00,,,0.00,VWS V14.00,2013-03-23 07:25:00,
2013-03-23 02:30:00,33.7,30.0,30.03,NE,45,6.0,10.0,86,0.00,,,0.00,VWS V14.00,2013-03-23 07:30:00,
2013-03-23 02:35:00,33.6,29.9,30.03,NE,45,3.0,8.0,86,0.00,,,0.00,VWS V14.00,2013-03-23 07:35:00,
2013-03-23 02:40:00,33.6,29.9,30.02,NE,45,6.0,9.0,86,0.00,,,0.00,VWS V14.00,2013-03-23 07:40:00,
2013-03-23 02:45:00,33.6,29.9,30.02,NE,45,5.0,9.0,86,0.00,,,0.00,VWS V14.00,2013-03-23 07:45:00,
2013-03-23 02:50:00,33.5,29.8,30.02,NE,45,5.0,11.0,86,0.00,,,0.00,VWS V14.00,2013-03-23 07:50:00,
2013-03-23 02:55:00,33.5,29.8,30.01,NE,45,4.0,9.0,86,0.00,,,0.00,VWS V14.00,2013-03-23 07:55:00,
2013-03-23 03:00:00,33.5,29.8,30.01,NE,45,5.0,9.0,86,0.00,,,0.00,VWS V14.00,2013-03-23 08:00:00,
2013-03-23 03:05:00,33.5,29.8,30.02,NE,45,5.0,10.0,86,0.00,,,0.00,VWS V14.00,2013-03-23 08:05:00,
2013-03-23 03:10:00,33.5,29.8,30.02,NE,45,4.0,8.0,86,0.00,,,0.00,VWS V14.00,2013-03-23 08:10:00,
2013-03-23 03:15:00,33.4,29.7,30.02,NE,45,5.0,8.0,86,0.00,,,0.00,VWS V14.00,2013-03-23 08:15:00,
2013-03-23 03:20:00,33.4,29.7,30.01,ENE,68,5.0,10.0,86,0.00,,,0.00,VWS V14.00,2013-03-23 08:20:00,
2013-03-23 03:25:00,33.5,29.8,30.01,NE,45,5.0,9.0,86,0.00,,,0.00,VWS V14.00,2013-03-23 08:25:00,
2013-03-23 03:30:00,33.5,29.8,30.01,NE,45,4.0,8.0,86,0.00,,,0.00,VWS V14.00,2013-03-23 08:30:00,
2013-03-23 03:35:00,33.5,29.8,30.01,NE,45,5.0,9.0,86,0.00,,,0.00,VWS V14.00,2013-03-23 08:35:00,
2013-03-23 03:40:00,33.5,29.8,30.01,NE,45,4.0,8.0,86,0.00,,,0.00,VWS V14.00,2013-03-23 08:40:00,
2013-03-23 03:45:00,33.5,29.8,30.01,NE,45,3.0,9.0,86,0.00,,,0.00,VWS V14.00,2013-03-23 08:45:00,
2013-03-23 03:50:00,33.5,29.8,30.01,NNE,22,2.0,5.0,86,0.00,,,0.00,VWS V14.00,2013-03-23 08:50:00,
2013-03-23 03:55:00,33.5,29.8,30.01,NE,45,3.0,8.0,86,0.00,,,0.00,VWS V14.00,2013-03-23 08:55:00,
2013-03-23 04:00:00,33.5,29.8,30.01,ENE,68,3.0,7.0,86,0.00,,,0.00,VWS V14.00,2013-03-23 09:00:00,
2013-03-23 04:05:00,33.6,29.6,30.01,ENE,68,4.0,8.0,85,0.00,,,0.00,VWS V14.00,2013-03-23 09:05:00,
2013-03-23 04:10:00,33.6,29.9,30.01,NE,45,5.0,9.0,86,0.00,,,0.00,VWS V14.00,2013-03-23 09:10:00,
2013-03-23 04:15:00,33.6,29.6,30.01,NE,45,5.0,8.0,85,0.00,,,0.00,VWS V14.00,2013-03-23 09:15:00,
2013-03-23 04:20:00,33.7,29.7,30.01,ENE,68,4.0,10.0,85,0.00,,,0.00,VWS V14.00,2013-03-23 09:20:00,
2013-03-23 04:25:00,33.7,29.7,30.01,NE,45,5.0,10.0,85,0.00,,,0.00,VWS V14.00,2013-03-23 09:25:00,
2013-03-23 04:30:00,33.8,29.8,30.01,ENE,68,5.0,8.0,85,0.00,,,0.00,VWS V14.00,2013-03-23 09:30:00,
2013-03-23 04:35:00,33.8,29.8,30.00,ENE,68,5.0,9.0,85,0.00,,,0.00,VWS V14.00,2013-03-23 09:35:00,
2013-03-23 04:40:00,33.9,29.9,30.00,ENE,68,6.0,10.0,85,0.00,,,0.00,VWS V14.00,2013-03-23 09:40:00,
2013-03-23 04:45:00,34.0,30.0,30.00,ENE,68,6.0,9.0,85,0.00,,,0.00,VWS V14.00,2013-03-23 09:45:00,
2013-03-23 04:50:00,34.1,30.1,30.00,ENE,68,3.0,7.0,85,0.00,,,0.00,VWS V14.00,2013-03-23 09:50:00,
2013-03-23 04:55:00,34.1,30.1,30.00,ENE,68,5.0,9.0,85,0.00,,,0.00,VWS V14.00,2013-03-23 09:55:00,
2013-03-23 05:00:00,34.2,30.2,30.00,ENE,68,4.0,7.0,85,0.00,,,0.00,VWS V14.00,2013-03-23 10:00:00,
2013-03-23 05:05:00,34.2,30.2,30.00,ENE,68,2.0,5.0,85,0.00,,,0.00,VWS V14.00,2013-03-23 10:05:00,
2013-03-23 05:10:00,34.3,30.3,30.01,NE,45,3.0,5.0,85,0.00,,,0.00,VWS V14.00,2013-03-23 10:10:00,
2013-03-23 05:15:00,34.2,30.2,30.01,NE,45,2.0,5.0,85,0.00,,,0.00,VWS V14.00,2013-03-23 10:15:00,
2013-03-23 05:20:00,34.2,30.2,30.01,NE,45,2.0,4.0,85,0.00,,,0.00,VWS V14.00,2013-03-23 10:20:00,
2013-03-23 05:25:00,34.1,30.1,30.02,NE,45,1.0,5.0,85,0.00,,,0.00,VWS V14.00,2013-03-23 10:25:00,
2013-03-23 05:30:00,34.1,30.1,30.02,NNE,22,2.0,4.0,85,0.00,,,0.00,VWS V14.00,2013-03-23 10:30:00,
2013-03-23 05:35:00,34.1,30.1,30.02,NE,45,4.0,7.0,85,0.00,,,0.00,VWS V14.00,2013-03-23 10:35:00,
2013-03-23 05:40:00,34.1,30.1,30.01,NE,45,2.0,6.0,85,0.00,,,0.00,VWS V14.00,2013-03-23 10:40:00,
2013-03-23 05:45:00,34.0,30.0,30.02,NE,45,3.0,7.0,85,0.00,,,0.00,VWS V14.00,2013-03-23 10:45:00,
2013-03-23 05:50:00,34.0,30.0,30.02,NE,45,4.0,7.0,85,0.00,,,0.00,VWS V14.00,2013-03-23 10:50:00,
2013-03-23 05:55:00,34.0,29.7,30.02,NE,45,3.0,7.0,84,0.00,,,0.00,VWS V14.00,2013-03-23 10:55:00,
2013-03-23 06:00:00,34.0,29.7,30.02,NE,45,2.0,5.0,84,0.00,,,0.00,VWS V14.00,2013-03-23 11:00:00,
2013-03-23 06:08:00,34.0,29.7,30.02,NE,45,2.0,5.0,84,0.00,,,0.00,VWS V14.00,2013-03-23 11:08:00,
2013-03-23 06:10:00,34.0,29.7,30.02,NNE,23,1.0,4.0,84,0.00,,,0.00,VWS V14.00,2013-03-23 11:10:00,
2013-03-23 06:13:00,34.0,30.0,30.03,NE,47,2.0,5.0,85,0.00,,,0.00,VWS V14.00,2013-03-23 11:13:00,
2013-03-23 06:15:00,34.0,29.7,30.03,NNE,13,6.0,7.0,84,0.00,,,0.00,VWS V14.00,2013-03-23 11:15:00,
2013-03-23 06:18:00,34.1,29.8,30.03,ENE,65,0.0,6.0,84,0.00,,,0.00,VWS V14.00,2013-03-23 11:18:00,
2013-03-23 06:20:00,34.0,29.7,30.03,NNE,30,2.0,6.0,84,0.00,,,0.00,VWS V14.00,2013-03-23 11:20:00,
2013-03-23 06:23:00,34.1,30.1,30.03,NNE,31,3.0,5.0,85,0.00,,,0.00,VWS V14.00,2013-03-23 11:23:00,
2013-03-23 06:25:00,34.1,29.8,30.03,NE,37,4.0,5.0,84,0.00,,,0.00,VWS V14.00,2013-03-23 11:25:00,
2013-03-23 06:28:00,34.1,29.8,30.03,NE,36,1.0,7.0,84,0.00,,,0.00,VWS V14.00,2013-03-23 11:28:00,
2013-03-23 06:30:00,34.1,29.8,30.02,NE,35,9.0,9.0,84,0.00,,,0.00,VWS V14.00,2013-03-23 11:30:00,
2013-03-23 06:33:00,34.1,29.8,30.02,NE,36,2.0,9.0,84,0.00,,,0.00,VWS V14.00,2013-03-23 11:33:00,
2013-03-23 06:35:00,34.1,29.8,30.02,NE,45,7.0,9.0,84,0.00,,,0.00,VWS V14.00,2013-03-23 11:35:00,
2013-03-23 06:38:00,34.1,29.8,30.02,North,10,6.0,10.0,84,0.00,,,0.00,VWS V14.00,2013-03-23 11:38:00,
2013-03-23 06:40:00,34.0,29.7,30.02,NNE,20,4.0,10.0,84,0.00,,,0.00,VWS V14.00,2013-03-23 11:40:00,
2013-03-23 06:43:00,34.0,30.0,30.02,NNE,26,6.0,7.0,85,0.00,,,0.00,VWS V14.00,2013-03-23 11:43:00,
2013-03-23 06:45:00,34.0,29.7,30.02,NNE,19,6.0,10.0,84,0.00,,,0.00,VWS V14.00,2013-03-23 11:45:00,
2013-03-23 06:48:00,33.9,29.9,30.01,NE,49,8.0,9.0,85,0.00,,,0.00,VWS V14.00,2013-03-23 11:48:00,
2013-03-23 06:50:00,33.9,29.9,30.01,NE,47,9.0,11.0,85,0.00,,,0.00,VWS V14.00,2013-03-23 11:50:00,
2013-03-23 06:53:00,33.8,29.5,30.01,ENE,59,9.0,11.0,84,0.00,,,0.00,VWS V14.00,2013-03-23 11:53:00,
2013-03-23 06:55:00,33.8,29.5,30.01,NE,38,4.0,11.0,84,0.00,,,0.00,VWS V14.00,2013-03-23 11:55:00,
2013-03-23 06:58:00,33.7,29.4,30.01,NNE,24,6.0,8.0,84,0.00,,,0.00,VWS V14.00,2013-03-23 11:58:00,
2013-03-23 07:00:00,33.7,29.4,30.01,NNE,12,8.0,9.0,84,0.00,,,0.00,VWS V14.00,2013-03-23 12:00:00,
2013-03-23 07:03:00,33.7,29.4,30.01,NE,35,5.0,11.0,84,0.00,,,0.00,VWS V14.00,2013-03-23 12:03:00,
2013-03-23 07:05:00,33.7,29.4,30.01,NE,36,8.0,11.0,84,0.00,,,0.00,VWS V14.00,2013-03-23 12:05:00,
2013-03-23 07:08:00,33.7,29.4,30.02,ENE,64,6.0,12.0,84,0.00,,,0.00,VWS V14.00,2013-03-23 12:08:00,
2013-03-23 07:10:00,33.7,29.4,30.02,ENE,64,3.0,12.0,84,0.00,,,0.00,VWS V14.00,2013-03-23 12:10:00,
2013-03-23 07:13:00,33.7,29.4,30.02,ENE,64,3.0,8.0,84,0.00,,,0.00,VWS V14.00,2013-03-23 12:13:00,
2013-03-23 07:15:00,33.7,29.4,30.02,NE,39,5.0,8.0,84,0.00,,,0.00,VWS V14.00,2013-03-23 12:15:00,
2013-03-23 07:18:00,33.7,29.4,30.02,NE,35,8.0,10.0,84,0.00,,,0.00,VWS V14.00,2013-03-23 12:18:00,
2013-03-23 07:20:00,33.7,29.4,30.02,ENE,65,5.0,10.0,84,0.00,,,0.00,VWS V14.00,2013-03-23 12:20:00,
2013-03-23 07:23:00,33.8,29.5,30.03,NE,39,5.0,10.0,84,0.00,,,0.00,VWS V14.00,2013-03-23 12:23:00,
2013-03-23 07:25:00,33.8,29.2,30.03,NE,51,5.0,10.0,83,0.00,,,0.00,VWS V14.00,2013-03-23 12:25:00,
2013-03-23 07:28:00,33.8,29.2,30.03,ENE,75,2.0,11.0,83,0.00,,,0.00,VWS V14.00,2013-03-23 12:28:00,
2013-03-23 07:30:00,33.8,29.5,30.02,East,83,2.0,11.0,84,0.00,,,0.00,VWS V14.00,2013-03-23 12:30:00,
2013-03-23 07:33:00,33.9,29.6,30.03,ENE,64,7.0,9.0,84,0.00,,,0.00,VWS V14.00,2013-03-23 12:33:00,
2013-03-23 07:35:00,33.9,29.6,30.02,NNE,23,7.0,9.0,84,0.00,,,0.00,VWS V14.00,2013-03-23 12:35:00,
2013-03-23 07:38:00,33.9,29.3,30.02,NE,44,8.0,11.0,83,0.00,,,0.00,VWS V14.00,2013-03-23 12:38:00,
2013-03-23 07:40:00,33.9,29.3,30.02,NE,48,3.0,11.0,83,0.00,,,0.00,VWS V14.00,2013-03-23 12:40:00,
2013-03-23 07:43:00,34.0,29.4,30.03,ENE,58,7.0,9.0,83,0.00,,,0.00,VWS V14.00,2013-03-23 12:43:00,
2013-03-23 07:45:00,34.0,29.4,30.03,ENE,57,10.0,10.0,83,0.00,,,0.00,VWS V14.00,2013-03-23 12:45:00,
2013-03-23 07:48:00,34.1,29.5,30.03,NE,45,3.0,10.0,83,0.00,,,0.00,VWS V14.00,2013-03-23 12:48:00,
2013-03-23 07:50:00,34.1,29.5,30.02,NE,54,5.0,11.0,83,0.00,,,0.00,VWS V14.00,2013-03-23 12:50:00,
2013-03-23 07:53:00,34.1,29.5,30.03,NNE,29,4.0,7.0,83,0.00,,,0.00,VWS V14.00,2013-03-23 12:53:00,
2013-03-23 07:55:00,34.1,29.5,30.03,NNE,24,1.0,7.0,83,0.00,,,0.00,VWS V14.00,2013-03-23 12:55:00,
2013-03-23 07:58:00,34.2,29.6,30.03,ENE,66,5.0,7.0,83,0.00,,,0.00,VWS V14.00,2013-03-23 12:58:00,
2013-03-23 08:00:00,34.2,29.6,30.03,NE,55,4.0,7.0,83,0.00,,,0.00,VWS V14.00,2013-03-23 13:00:00,
2013-03-23 08:03:00,34.2,29.6,30.03,ENE,68,5.0,9.0,83,0.00,,,0.00,VWS V14.00,2013-03-23 13:03:00,
2013-03-23 08:05:00,34.3,29.4,30.03,NNE,26,2.0,11.0,82,0.00,,,0.00,VWS V14.00,2013-03-23 13:05:00,
2013-03-23 08:08:00,34.3,29.7,30.03,NE,34,1.0,8.0,83,0.00,,,0.00,VWS V14.00,2013-03-23 13:08:00,
2013-03-23 08:10:00,34.3,29.7,30.03,ENE,58,1.0,8.0,83,0.00,,,0.00,VWS V14.00,2013-03-23 13:10:00,
2013-03-23 08:13:00,34.3,29.4,30.03,ENE,61,5.0,8.0,82,0.00,,,0.00,VWS V14.00,2013-03-23 13:13:00,
2013-03-23 08:15:00,34.4,29.5,30.03,NE,43,4.0,8.0,82,0.00,,,0.00,VWS V14.00,2013-03-23 13:15:00,
2013-03-23 08:18:00,34.4,29.5,30.03,NE,49,1.0,8.0,82,0.00,,,0.00,VWS V14.00,2013-03-23 13:18:00,
2013-03-23 08:20:00,34.4,29.5,30.03,ENE,78,5.0,8.0,82,0.00,,,0.00,VWS V14.00,2013-03-23 13:20:00,
2013-03-23 08:23:00,34.5,29.6,30.03,ENE,70,3.0,11.0,82,0.00,,,0.00,VWS V14.00,2013-03-23 13:23:00,
2013-03-23 08:25:00,34.6,29.4,30.04,NE,51,2.0,11.0,81,0.00,,,0.00,VWS V14.00,2013-03-23 13:25:00,
2013-03-23 08:28:00,34.6,29.7,30.04,NE,43,7.0,11.0,82,0.00,,,0.00,VWS V14.00,2013-03-23 13:28:00,
2013-03-23 08:30:00,34.7,30.1,30.04,ENE,59,2.0,11.0,83,0.00,,,0.00,VWS V14.00,2013-03-23 13:30:00,
2013-03-23 08:33:00,34.7,29.5,30.04,NNE,22,4.0,11.0,81,0.00,,,0.00,VWS V14.00,2013-03-23 13:33:00,
2013-03-23 08:35:00,34.8,29.6,30.04,NE,42,3.0,11.0,81,0.00,,,0.00,VWS V14.00,2013-03-23 13:35:00,
2013-03-23 08:38:00,34.8,29.6,30.04,ENE,71,6.0,11.0,81,0.00,,,0.00,VWS V14.00,2013-03-23 13:38:00,
2013-03-23 08:40:00,34.8,29.6,30.04,ENE,71,9.0,11.0,81,0.00,,,0.00,VWS V14.00,2013-03-23 13:40:00,
2013-03-23 08:43:00,34.9,29.7,30.04,NE,50,5.0,10.0,81,0.00,,,0.00,VWS V14.00,2013-03-23 13:43:00,
2013-03-23 08:45:00,35.0,29.8,30.04,East,83,0.0,10.0,81,0.00,,,0.00,VWS V14.00,2013-03-23 13:45:00,
2013-03-23 08:48:00,35.0,30.1,30.03,NE,35,7.0,8.0,82,0.00,,,0.00,VWS V14.00,2013-03-23 13:48:00,
2013-03-23 08:50:00,35.1,29.9,30.04,NE,50,2.0,9.0,81,0.00,,,0.00,VWS V14.00,2013-03-23 13:50:00,
2013-03-23 08:53:00,35.1,29.6,30.04,NE,42,7.0,8.0,80,0.00,,,0.00,VWS V14.00,2013-03-23 13:53:00,
2013-03-23 08:55:00,35.2,30.0,30.03,ENE,72,7.0,10.0,81,0.00,,,0.00,VWS V14.00,2013-03-23 13:55:00,
2013-03-23 08:58:00,35.2,29.7,30.04,ENE,66,6.0,11.0,80,0.00,,,0.00,VWS V14.00,2013-03-23 13:58:00,
2013-03-23 09:00:00,35.3,29.8,30.04,NE,49,7.0,11.0,80,0.00,,,0.00,VWS V14.00,2013-03-23 14:00:00,
2013-03-23 09:03:00,35.3,29.8,30.04,ENE,64,9.0,13.0,80,0.00,,,0.00,VWS V14.00,2013-03-23 14:03:00,
2013-03-23 09:05:00,35.3,29.8,30.04,ENE,61,6.0,13.0,80,0.00,,,0.00,VWS V14.00,2013-03-23 14:05:00,
2013-03-23 09:08:00,35.5,30.0,30.04,NE,44,4.0,9.0,80,0.00,,,0.00,VWS V14.00,2013-03-23 14:08:00,
2013-03-23 09:10:00,35.5,30.0,30.04,ENE,72,2.0,9.0,80,0.00,,,0.00,VWS V14.00,2013-03-23 14:10:00,
2013-03-23 09:13:00,35.5,29.6,30.04,NE,47,7.0,11.0,79,0.00,,,0.00,VWS V14.00,2013-03-23 14:13:00,
2013-03-23 09:15:00,35.5,29.6,30.04,ENE,74,1.0,12.0,79,0.00,,,0.00,VWS V14.00,2013-03-23 14:15:00,
2013-03-23 09:18:00,35.6,29.7,30.04,ENE,69,5.0,9.0,79,0.00,,,0.00,VWS V14.00,2013-03-23 14:18:00,
2013-03-23 09:20:00,35.6,29.7,30.04,ENE,75,3.0,9.0,79,0.00,,,0.00,VWS V14.00,2013-03-23 14:20:00,
2013-03-23 09:23:00,35.7,30.1,30.04,NE,52,3.0,9.0,80,0.00,,,0.00,VWS V14.00,2013-03-23 14:23:00,
2013-03-23 09:25:00,35.7,30.1,30.04,ENE,57,5.0,9.0,80,0.00,,,0.00,VWS V14.00,2013-03-23 14:25:00,
2013-03-23 09:28:00,35.8,30.5,30.04,NE,42,5.0,9.0,81,0.00,,,0.00,VWS V14.00,2013-03-23 14:28:00,
2013-03-23 09:30:00,35.8,30.2,30.04,NE,49,1.0,9.0,80,0.00,,,0.00,VWS V14.00,2013-03-23 14:30:00,
2013-03-23 09:33:00,35.9,30.6,30.04,NE,46,8.0,9.0,81,0.00,,,0.00,VWS V14.00,2013-03-23 14:33:00,
2013-03-23 09:35:00,36.0,30.4,30.04,ENE,63,10.0,11.0,80,0.00,,,0.00,VWS V14.00,2013-03-23 14:35:00,
2013-03-23 09:38:00,36.0,30.4,30.03,NE,56,5.0,10.0,80,0.00,,,0.00,VWS V14.00,2013-03-23 14:38:00,
2013-03-23 09:40:00,36.0,30.4,30.03,ENE,61,8.0,10.0,80,0.00,,,0.00,VWS V14.00,2013-03-23 14:40:00,
2013-03-23 09:43:00,36.1,30.2,30.03,ENE,62,8.0,13.0,79,0.00,,,0.00,VWS V14.00,2013-03-23 14:43:00,
2013-03-23 09:45:00,36.1,30.5,30.03,NE,39,5.0,13.0,80,0.00,,,0.00,VWS V14.00,2013-03-23 14:45:00,
2013-03-23 09:48:00,36.2,30.6,30.04,NE,56,8.0,8.0,80,0.00,,,0.00,VWS V14.00,2013-03-23 14:48:00,
2013-03-23 09:50:00,36.2,30.6,30.04,NE,46,2.0,9.0,80,0.00,,,0.00,VWS V14.00,2013-03-23 14:50:00,
2013-03-23 09:53:00,36.4,31.1,30.04,NNE,31,5.0,9.0,81,0.00,,,0.00,VWS V14.00,2013-03-23 14:53:00,
2013-03-23 09:55:00,36.4,30.8,30.03,North,11,5.0,11.0,80,0.00,,,0.00,VWS V14.00,2013-03-23 14:55:00,
2013-03-23 09:58:00,36.5,30.9,30.04,NE,39,10.0,11.0,80,0.00,,,0.00,VWS V14.00,2013-03-23 14:58:00,
2013-03-23 10:00:00,36.6,30.7,30.04,NNE,33,6.0,11.0,79,0.00,,,0.00,VWS V14.00,2013-03-23 15:00:00,
2013-03-23 10:03:00,36.7,31.1,30.04,NNE,21,12.0,12.0,80,0.00,,,0.00,VWS V14.00,2013-03-23 15:03:00,
2013-03-23 10:05:00,36.7,30.8,30.04,NE,49,9.0,12.0,79,0.00,,,0.00,VWS V14.00,2013-03-23 15:05:00,
2013-03-23 10:08:00,36.8,30.9,30.03,NE,41,5.0,14.0,79,0.00,,,0.00,VWS V14.00,2013-03-23 15:08:00,
2013-03-23 10:10:00,36.8,30.9,30.03,NNE,22,5.0,14.0,79,0.00,,,0.00,VWS V14.00,2013-03-23 15:10:00,
2013-03-23 10:13:00,36.9,31.0,30.03,NNE,18,8.0,13.0,79,0.00,,,0.00,VWS V14.00,2013-03-23 15:13:00,
2013-03-23 10:15:00,36.9,31.3,30.03,ENE,58,6.0,13.0,80,0.00,,,0.00,VWS V14.00,2013-03-23 15:15:00,
2013-03-23 10:18:00,37.0,31.1,30.03,NE,40,5.0,10.0,79,0.00,,,0.00,VWS V14.00,2013-03-23 15:18:00,
2013-03-23 10:20:00,37.0,31.4,30.03,NE,35,4.0,13.0,80,0.00,,,0.00,VWS V14.00,2013-03-23 15:20:00,
2013-03-23 10:23:00,37.1,31.2,30.03,ENE,60,5.0,10.0,79,0.00,,,0.00,VWS V14.00,2013-03-23 15:23:00,
2013-03-23 10:25:00,37.2,31.6,30.03,East,89,8.0,10.0,80,0.00,,,0.00,VWS V14.00,2013-03-23 15:25:00,
2013-03-23 10:28:00,37.3,30.8,30.03,ENE,73,5.0,11.0,77,0.00,,,0.00,VWS V14.00,2013-03-23 15:28:00,
2013-03-23 10:30:00,37.3,30.8,30.03,North,358,5.0,11.0,77,0.00,,,0.00,VWS V14.00,2013-03-23 15:30:00,
2013-03-23 10:33:00,37.4,30.9,30.04,NNE,27,4.0,12.0,77,0.00,,,0.00,VWS V14.00,2013-03-23 15:33:00,
2013-03-23 10:35:00,37.4,30.9,30.04,NE,41,5.0,12.0,77,0.00,,,0.00,VWS V14.00,2013-03-23 15:35:00,
2013-03-23 10:38:00,37.4,30.9,30.04,NNE,27,8.0,11.0,77,0.00,,,0.00,VWS V14.00,2013-03-23 15:38:00,
2013-03-23 10:40:00,37.4,30.5,30.04,ENE,64,10.0,12.0,76,0.00,,,0.00,VWS V14.00,2013-03-23 15:40:00,
2013-03-23 10:43:00,37.4,30.5,30.04,ENE,70,10.0,11.0,76,0.00,,,0.00,VWS V14.00,2013-03-23 15:43:00,
2013-03-23 10:45:00,37.4,30.5,30.05,ENE,58,2.0,11.0,76,0.00,,,0.00,VWS V14.00,2013-03-23 15:45:00,
2013-03-23 10:48:00,37.5,31.0,30.05,NE,47,4.0,7.0,77,0.00,,,0.00,VWS V14.00,2013-03-23 15:48:00,
2013-03-23 10:50:00,37.6,31.1,30.05,ENE,65,5.0,7.0,77,0.00,,,0.00,VWS V14.00,2013-03-23 15:50:00,
2013-03-23 10:53:00,37.7,30.8,30.05,ENE,69,6.0,11.0,76,0.00,,,0.00,VWS V14.00,2013-03-23 15:53:00,
2013-03-23 10:55:00,37.7,30.5,30.05,ENE,58,2.0,11.0,75,0.00,,,0.00,VWS V14.00,2013-03-23 15:55:00,
2013-03-23 10:58:00,37.8,30.9,30.05,NE,44,2.0,11.0,76,0.00,,,0.00,VWS V14.00,2013-03-23 15:58:00,
2013-03-23 11:00:00,37.8,31.2,30.05,East,83,2.0,11.0,77,0.00,,,0.00,VWS V14.00,2013-03-23 16:00:00,
2013-03-23 11:03:00,37.9,31.4,30.05,ENE,74,6.0,12.0,77,0.00,,,0.00,VWS V14.00,2013-03-23 16:03:00,
2013-03-23 11:05:00,37.9,30.7,30.05,ENE,57,9.0,12.0,75,0.00,,,0.00,VWS V14.00,2013-03-23 16:05:00,
2013-03-23 11:08:00,37.9,30.4,30.06,ENE,60,2.0,9.0,74,0.00,,,0.00,VWS V14.00,2013-03-23 16:08:00,
2013-03-23 11:10:00,38.0,30.8,30.06,ENE,67,3.0,10.0,75,0.00,,,0.00,VWS V14.00,2013-03-23 16:10:00,
2013-03-23 11:13:00,38.0,30.8,30.06,ENE,63,3.0,7.0,75,0.00,,,0.00,VWS V14.00,2013-03-23 16:13:00,
2013-03-23 11:15:00,38.0,30.8,30.06,NE,43,5.0,7.0,75,0.00,,,0.00,VWS V14.00,2013-03-23 16:15:00,
2013-03-23 11:18:00,38.1,30.2,30.06,ENE,77,6.0,11.0,73,0.00,,,0.00,VWS V14.00,2013-03-23 16:18:00,
2013-03-23 11:20:00,38.1,30.6,30.06,ENE,70,7.0,11.0,74,0.00,,,0.00,VWS V14.00,2013-03-23 16:20:00,
2013-03-23 11:23:00,38.1,30.6,30.05,NE,35,1.0,12.0,74,0.00,,,0.00,VWS V14.00,2013-03-23 16:23:00,
2013-03-23 11:25:00,38.2,30.3,30.05,NE,43,8.0,12.0,73,0.00,,,0.00,VWS V14.00,2013-03-23 16:25:00,
2013-03-23 11:28:00,38.2,30.7,30.05,East,79,5.0,11.0,74,0.00,,,0.00,VWS V14.00,2013-03-23 16:28:00,
2013-03-23 11:30:00,38.2,30.7,30.05,NE,48,1.0,11.0,74,0.00,,,0.00,VWS V14.00,2013-03-23 16:30:00,
2013-03-23 11:33:00,38.2,31.0,30.05,NNE,30,2.0,7.0,75,0.00,,,0.00,VWS V14.00,2013-03-23 16:33:00,
2013-03-23 11:35:00,38.3,31.4,30.05,NE,53,2.0,7.0,76,0.00,,,0.00,VWS V14.00,2013-03-23 16:35:00,
2013-03-23 11:38:00,38.4,31.2,30.05,NNE,26,5.0,9.0,75,0.00,,,0.00,VWS V14.00,2013-03-23 16:38:00,
2013-03-23 11:40:00,38.4,31.2,30.05,NNE,27,4.0,9.0,75,0.00,,,0.00,VWS V14.00,2013-03-23 16:40:00,
2013-03-23 11:43:00,38.5,31.6,30.05,ENE,59,3.0,8.0,76,0.00,,,0.00,VWS V14.00,2013-03-23 16:43:00,
2013-03-23 11:45:00,38.5,31.6,30.05,NNE,25,3.0,8.0,76,0.00,,,0.00,VWS V14.00,2013-03-23 16:45:00,
2013-03-23 11:48:00,38.6,31.4,30.05,NNE,31,7.0,9.0,75,0.00,,,0.00,VWS V14.00,2013-03-23 16:48:00,
2013-03-23 11:50:00,38.6,31.4,30.05,NE,52,2.0,9.0,75,0.00,,,0.00,VWS V14.00,2013-03-23 16:50:00,
2013-03-23 11:53:00,38.7,31.5,30.05,NE,50,2.0,7.0,75,0.00,,,0.00,VWS V14.00,2013-03-23 16:53:00,
2013-03-23 11:55:00,38.7,31.1,30.05,North,6,3.0,7.0,74,0.00,,,0.00,VWS V14.00,2013-03-23 16:55:00,
2013-03-23 11:58:00,38.8,31.6,30.05,NE,53,9.0,11.0,75,0.00,,,0.00,VWS V14.00,2013-03-23 16:58:00,
2013-03-23 12:00:00,38.8,31.2,30.05,North,360,6.0,11.0,74,0.00,,,0.00,VWS V14.00,2013-03-23 17:00:00,
2013-03-23 12:03:00,38.8,31.2,30.05,North,6,4.0,12.0,74,0.00,,,0.00,VWS V14.00,2013-03-23 17:03:00,
2013-03-23 12:05:00,38.8,30.9,30.04,NNE,18,6.0,12.0,73,0.00,,,0.00,VWS V14.00,2013-03-23 17:05:00,
2013-03-23 12:08:00,38.8,31.2,30.04,NNE,16,6.0,13.0,74,0.00,,,0.00,VWS V14.00,2013-03-23 17:08:00,
2013-03-23 12:10:00,38.9,31.3,30.04,ENE,75,7.0,13.0,74,0.00,,,0.00,VWS V14.00,2013-03-23 17:10:00,
2013-03-23 12:13:00,38.9,31.0,30.04,NE,42,3.0,12.0,73,0.00,,,0.00,VWS V14.00,2013-03-23 17:13:00,
2013-03-23 12:15:00,38.9,31.0,30.04,NNE,24,6.0,12.0,73,0.00,,,0.00,VWS V14.00,2013-03-23 17:15:00,
2013-03-23 12:18:00,38.9,31.0,30.04,NNE,19,7.0,10.0,73,0.00,,,0.00,VWS V14.00,2013-03-23 17:18:00,
2013-03-23 12:20:00,38.9,31.0,30.04,NNE,32,5.0,10.0,73,0.00,,,0.00,VWS V14.00,2013-03-23 17:20:00,
2013-03-23 12:23:00,38.9,31.0,30.04,NE,45,10.0,12.0,73,0.00,,,0.00,VWS V14.00,2013-03-23 17:23:00,
2013-03-23 12:25:00,38.9,31.0,30.04,NNE,33,1.0,12.0,73,0.00,,,0.00,VWS V14.00,2013-03-23 17:25:00,
2013-03-23 12:28:00,39.0,31.4,30.04,NE,54,4.0,9.0,74,0.00,,,0.00,VWS V14.00,2013-03-23 17:28:00,
2013-03-23 12:30:00,39.0,30.8,30.04,NNE,20,4.0,11.0,72,0.00,,,0.00,VWS V14.00,2013-03-23 17:30:00,
2013-03-23 12:33:00,39.0,30.4,30.03,NE,47,5.0,11.0,71,0.00,,,0.00,VWS V14.00,2013-03-23 17:33:00,
2013-03-23 12:35:00,38.9,30.3,30.03,NNE,27,7.0,11.0,71,0.00,,,0.00,VWS V14.00,2013-03-23 17:35:00,
2013-03-23 12:38:00,38.8,30.2,30.02,NE,42,4.0,15.0,71,0.00,,,0.00,VWS V14.00,2013-03-23 17:38:00,
2013-03-23 12:40:00,38.8,30.2,30.02,NNE,25,3.0,15.0,71,0.00,,,0.00,VWS V14.00,2013-03-23 17:40:00,
2013-03-23 12:43:00,38.8,30.2,30.02,NE,45,5.0,14.0,71,0.00,,,0.00,VWS V14.00,2013-03-23 17:43:00,
2013-03-23 12:45:00,38.8,30.2,30.02,NNE,30,9.0,16.0,71,0.00,,,0.00,VWS V14.00,2013-03-23 17:45:00,
2013-03-23 12:48:00,38.8,30.2,30.02,NNE,29,7.0,16.0,71,0.00,,,0.00,VWS V14.00,2013-03-23 17:48:00,
2013-03-23 12:50:00,38.8,30.6,30.02,NNE,31,7.0,16.0,72,0.00,,,0.00,VWS V14.00,2013-03-23 17:50:00,
2013-03-23 12:53:00,38.9,30.7,30.02,ENE,61,10.0,11.0,72,0.00,,,0.00,VWS V14.00,2013-03-23 17:53:00,
2013-03-23 12:55:00,38.9,30.0,30.02,NE,36,11.0,13.0,70,0.00,,,0.00,VWS V14.00,2013-03-23 17:55:00,
2013-03-23 12:58:00,38.8,29.5,30.02,ENE,60,6.0,13.0,69,0.00,,,0.00,VWS V14.00,2013-03-23 17:58:00,
2013-03-23 13:00:00,38.8,29.9,30.02,NNE,27,5.0,13.0,70,0.00,,,0.00,VWS V14.00,2013-03-23 18:00:00,
2013-03-23 13:03:00,38.8,30.2,30.01,NE,49,9.0,13.0,71,0.00,,,0.00,VWS V14.00,2013-03-23 18:03:00,
2013-03-23 13:05:00,38.9,30.3,30.01,ENE,61,7.0,13.0,71,0.00,,,0.00,VWS V14.00,2013-03-23 18:05:00,
2013-03-23 13:08:00,38.9,29.6,30.01,NNE,31,4.0,11.0,69,0.00,,,0.00,VWS V14.00,2013-03-23 18:08:00,
2013-03-23 13:10:00,39.0,30.1,30.00,NNE,29,4.0,11.0,70,0.00,,,0.00,VWS V14.00,2013-03-23 18:10:00,
2013-03-23 13:13:00,39.1,29.8,30.00,NE,52,5.0,17.0,69,0.00,,,0.00,VWS V14.00,2013-03-23 18:13:00,
2013-03-23 13:15:00,39.1,29.8,30.00,NE,46,11.0,17.0,69,0.00,,,0.00,VWS V14.00,2013-03-23 18:15:00,
2013-03-23 13:18:00,39.2,30.2,30.00,ENE,70,7.0,13.0,70,0.00,,,0.00,VWS V14.00,2013-03-23 18:18:00,
2013-03-23 13:20:00,39.2,29.9,30.00,NE,35,9.0,16.0,69,0.00,,,0.00,VWS V14.00,2013-03-23 18:20:00,
2013-03-23 13:23:00,39.2,29.5,29.99,NE,52,11.0,20.0,68,0.00,,,0.00,VWS V14.00,2013-03-23 18:23:00,
2013-03-23 13:25:00,39.2,29.9,29.99,NNE,23,13.0,20.0,69,0.00,,,0.00,VWS V14.00,2013-03-23 18:25:00,
2013-03-23 13:28:00,39.2,29.5,29.99,ENE,65,9.0,21.0,68,0.00,,,0.00,VWS V14.00,2013-03-23 18:28:00,
2013-03-23 13:30:00,39.2,29.5,29.99,North,4,6.0,21.0,68,0.00,,,0.00,VWS V14.00,2013-03-23 18:30:00,
2013-03-23 13:33:00,39.2,29.9,29.98,NE,36,3.0,14.0,69,0.00,,,0.00,VWS V14.00,2013-03-23 18:33:00,
2013-03-23 13:35:00,39.3,30.0,29.98,ENE,64,7.0,14.0,69,0.00,,,0.00,VWS V14.00,2013-03-23 18:35:00,
2013-03-23 13:38:00,39.5,30.2,29.98,NE,36,7.0,13.0,69,0.00,,,0.00,VWS V14.00,2013-03-23 18:38:00,
2013-03-23 13:40:00,39.6,29.9,29.98,ENE,57,16.0,17.0,68,0.00,,,0.00,VWS V14.00,2013-03-23 18:40:00,
2013-03-23 13:43:00,39.7,30.4,29.97,North,7,6.0,16.0,69,0.00,,,0.00,VWS V14.00,2013-03-23 18:43:00,
2013-03-23 13:45:00,39.9,30.6,29.97,NE,35,9.0,16.0,69,0.00,,,0.00,VWS V14.00,2013-03-23 18:45:00,
2013-03-23 13:48:00,40.1,30.4,29.97,NE,50,8.0,12.0,68,0.00,,,0.00,VWS V14.00,2013-03-23 18:48:00,
2013-03-23 13:50:00,40.3,31.0,29.97,ENE,68,8.0,12.0,69,0.00,,,0.00,VWS V14.00,2013-03-23 18:50:00,
2013-03-23 13:53:00,40.5,30.8,29.97,ENE,66,10.0,13.0,68,0.00,,,0.00,VWS V14.00,2013-03-23 18:53:00,
2013-03-23 13:55:00,40.6,30.9,29.97,NE,45,4.0,14.0,68,0.00,,,0.00,VWS V14.00,2013-03-23 18:55:00,
2013-03-23 13:58:00,40.6,30.5,29.97,NE,56,9.0,22.0,67,0.00,,,0.00,VWS V14.00,2013-03-23 18:58:00,
2013-03-23 14:00:00,40.5,30.4,29.97,NE,40,10.0,22.0,67,0.00,,,0.00,VWS V14.00,2013-03-23 19:00:00,
2013-03-23 14:03:00,40.4,30.7,29.96,ENE,74,5.0,16.0,68,0.00,,,0.00,VWS V14.00,2013-03-23 19:03:00,
2013-03-23 14:05:00,40.4,30.3,29.96,ENE,63,10.0,16.0,67,0.00,,,0.00,VWS V14.00,2013-03-23 19:05:00,
2013-03-23 14:08:00,40.4,30.3,29.96,ENE,76,5.0,16.0,67,0.00,,,0.00,VWS V14.00,2013-03-23 19:08:00,
2013-03-23 14:10:00,40.4,30.3,29.95,NE,38,15.0,16.0,67,0.00,,,0.00,VWS V14.00,2013-03-23 19:10:00,
2013-03-23 14:13:00,40.4,30.3,29.95,NNE,27,18.0,20.0,67,0.00,,,0.00,VWS V14.00,2013-03-23 19:13:00,
2013-03-23 14:15:00,40.3,29.5,29.95,NE,53,7.0,20.0,65,0.00,,,0.00,VWS V14.00,2013-03-23 19:15:00,
2013-03-23 14:18:00,40.2,30.1,29.95,NNE,25,7.0,16.0,67,0.00,,,0.00,VWS V14.00,2013-03-23 19:18:00,
2013-03-23 14:20:00,40.2,30.1,29.95,NE,43,10.0,16.0,67,0.00,,,0.00,VWS V14.00,2013-03-23 19:20:00,
2013-03-23 14:23:00,40.2,29.8,29.95,NE,47,7.0,15.0,66,0.00,,,0.00,VWS V14.00,2013-03-23 19:23:00,
2013-03-23 14:25:00,40.1,30.0,29.95,ENE,63,11.0,17.0,67,0.00,,,0.00,VWS V14.00,2013-03-23 19:25:00,
2013-03-23 14:28:00,40.1,30.0,29.94,NE,43,9.0,15.0,67,0.00,,,0.00,VWS V14.00,2013-03-23 19:28:00,
2013-03-23 14:30:00,40.1,30.0,29.94,NE,49,8.0,15.0,67,0.00,,,0.00,VWS V14.00,2013-03-23 19:30:00,
2013-03-23 14:33:00,40.2,29.8,29.94,NE,46,10.0,16.0,66,0.00,,,0.00,VWS V14.00,2013-03-23 19:33:00,
2013-03-23 14:35:00,40.2,30.5,29.94,ENE,63,10.0,16.0,68,0.00,,,0.00,VWS V14.00,2013-03-23 19:35:00,
2013-03-23 14:38:00,40.3,29.9,29.94,NE,47,7.0,15.0,66,0.00,,,0.00,VWS V14.00,2013-03-23 19:38:00,
2013-03-23 14:40:00,40.4,30.0,29.94,North,8,6.0,15.0,66,0.00,,,0.00,VWS V14.00,2013-03-23 19:40:00,
2013-03-23 14:43:00,40.5,30.8,29.93,NE,47,2.0,9.0,68,0.00,,,0.00,VWS V14.00,2013-03-23 19:43:00,
2013-03-23 14:45:00,40.6,31.2,29.94,NE,52,8.0,10.0,69,0.00,,,0.00,VWS V14.00,2013-03-23 19:45:00,
2013-03-23 14:48:00,40.9,30.4,29.93,NE,35,14.0,20.0,66,0.00,,,0.00,VWS V14.00,2013-03-23 19:48:00,
2013-03-23 14:50:00,40.9,30.1,29.94,NE,37,14.0,20.0,65,0.00,,,0.00,VWS V14.00,2013-03-23 19:50:00,
2013-03-23 14:53:00,40.9,30.1,29.93,ENE,58,7.0,14.0,65,0.00,,,0.00,VWS V14.00,2013-03-23 19:53:00,
2013-03-23 14:55:00,40.8,30.3,29.93,NE,45,10.0,14.0,66,0.00,,,0.00,VWS V14.00,2013-03-23 19:55:00,
2013-03-23 14:58:00,40.8,30.0,29.93,NE,43,10.0,16.0,65,0.00,,,0.00,VWS V14.00,2013-03-23 19:58:00,
2013-03-23 15:00:00,40.8,30.3,29.92,NNE,18,8.0,18.0,66,0.00,,,0.00,VWS V14.00,2013-03-23 20:00:00,
2013-03-23 15:03:00,40.9,30.4,29.92,NE,51,9.0,13.0,66,0.00,,,0.00,VWS V14.00,2013-03-23 20:03:00,
2013-03-23 15:05:00,41.0,30.1,29.92,NNE,20,4.0,15.0,65,0.00,,,0.00,VWS V14.00,2013-03-23 20:05:00,
2013-03-23 15:08:00,41.1,30.6,29.92,North,10,6.0,16.0,66,0.00,,,0.00,VWS V14.00,2013-03-23 20:08:00,
2013-03-23 15:10:00,41.1,30.2,29.92,NE,48,11.0,16.0,65,0.00,,,0.00,VWS V14.00,2013-03-23 20:10:00,
2013-03-23 15:13:00,41.1,30.2,29.92,NNE,24,5.0,15.0,65,0.00,,,0.00,VWS V14.00,2013-03-23 20:13:00,
2013-03-23 15:15:00,41.2,30.3,29.91,ENE,71,10.0,15.0,65,0.00,,,0.00,VWS V14.00,2013-03-23 20:15:00,
2013-03-23 15:18:00,41.2,30.7,29.91,ENE,68,9.0,16.0,66,0.00,,,0.00,VWS V14.00,2013-03-23 20:18:00,
2013-03-23 15:20:00,41.3,30.8,29.91,ENE,63,6.0,16.0,66,0.00,,,0.00,VWS V14.00,2013-03-23 20:20:00,
2013-03-23 15:23:00,41.3,30.4,29.91,NNE,31,6.0,16.0,65,0.00,,,0.00,VWS V14.00,2013-03-23 20:23:00,
2013-03-23 15:25:00,41.4,30.5,29.91,ENE,70,7.0,16.0,65,0.00,,,0.00,VWS V14.00,2013-03-23 20:25:00,
2013-03-23 15:28:00,41.5,31.0,29.91,ENE,59,6.0,10.0,66,0.00,,,0.00,VWS V14.00,2013-03-23 20:28:00,
2013-03-23 15:30:00,41.5,31.0,29.91,NE,43,11.0,12.0,66,0.00,,,0.00,VWS V14.00,2013-03-23 20:30:00,
2013-03-23 15:33:00,41.6,30.3,29.90,NE,50,9.0,16.0,64,0.00,,,0.00,VWS V14.00,2013-03-23 20:33:00,
2013-03-23 15:35:00,41.7,30.8,29.90,NE,43,3.0,16.0,65,0.00,,,0.00,VWS V14.00,2013-03-23 20:35:00,
2013-03-23 15:38:00,41.8,30.5,29.90,ENE,71,16.0,20.0,64,0.00,,,0.00,VWS V14.00,2013-03-23 20:38:00,
2013-03-23 15:40:00,41.8,30.1,29.90,NNE,27,4.0,20.0,63,0.00,,,0.00,VWS V14.00,2013-03-23 20:40:00,
2013-03-23 15:43:00,41.8,30.5,29.90,NE,35,13.0,15.0,64,0.00,,,0.00,VWS V14.00,2013-03-23 20:43:00,
2013-03-23 15:45:00,41.8,30.1,29.90,NE,49,10.0,15.0,63,0.00,,,0.00,VWS V14.00,2013-03-23 20:45:00,
2013-03-23 15:48:00,41.8,30.5,29.90,NE,37,2.0,11.0,64,0.00,,,0.00,VWS V14.00,2013-03-23 20:48:00,
2013-03-23 15:50:00,41.8,31.3,29.90,NE,54,7.0,14.0,66,0.00,,,0.00,VWS V14.00,2013-03-23 20:50:00,
2013-03-23 15:53:00,41.8,31.3,29.91,NNE,23,4.0,13.0,66,0.00,,,0.00,VWS V14.00,2013-03-23 20:53:00,
2013-03-23 15:55:00,41.7,30.8,29.91,ENE,60,7.0,22.0,65,0.00,,,0.00,VWS V14.00,2013-03-23 20:55:00,
2013-03-23 15:58:00,41.5,30.6,29.92,NNE,24,4.0,20.0,65,0.00,,,0.00,VWS V14.00,2013-03-23 20:58:00,
2013-03-23 16:00:00,41.4,31.3,29.92,NE,49,10.0,20.0,67,0.00,,,0.00,VWS V14.00,2013-03-23 21:00:00,
2013-03-23 16:03:00,41.3,31.2,29.92,NNE,30,4.0,13.0,67,0.00,,,0.00,VWS V14.00,2013-03-23 21:03:00,
2013-03-23 16:05:00,41.2,31.1,29.92,ENE,61,6.0,13.0,67,0.00,,,0.00,VWS V14.00,2013-03-23 21:05:00,
2013-03-23 16:08:00,41.0,31.3,29.92,ENE,59,8.0,13.0,68,0.00,,,0.00,VWS V14.00,2013-03-23 21:08:00,
2013-03-23 16:10:00,40.9,31.2,29.92,NE,38,10.0,14.0,68,0.00,,,0.00,VWS V14.00,2013-03-23 21:10:00,
2013-03-23 16:13:00,40.8,32.1,29.92,East,97,4.0,11.0,71,0.00,,,0.00,VWS V14.00,2013-03-23 21:13:00,
2013-03-23 16:15:00,40.8,32.8,29.93,ENE,62,7.0,12.0,73,0.00,,,0.00,VWS V14.00,2013-03-23 21:15:00,
2013-03-23 16:18:00,40.6,32.3,29.93,ENE,74,8.0,14.0,72,0.00,,,0.00,VWS V14.00,2013-03-23 21:18:00,
2013-03-23 16:20:00,40.5,32.2,29.93,ENE,75,6.0,14.0,72,0.00,,,0.00,VWS V14.00,2013-03-23 21:20:00,
2013-03-23 16:23:00,40.3,32.3,29.93,ENE,77,10.0,14.0,73,0.00,,,0.00,VWS V14.00,2013-03-23 21:23:00,
2013-03-23 16:25:00,40.2,32.6,29.93,NE,42,1.0,14.0,74,0.01,,,0.01,VWS V14.00,2013-03-23 21:25:00,
2013-03-23 16:28:00,40.1,32.8,29.93,NE,55,1.0,8.0,75,0.01,,,0.01,VWS V14.00,2013-03-23 21:28:00,
2013-03-23 16:30:00,40.0,33.1,29.93,ESE,105,1.0,8.0,76,0.01,,,0.01,VWS V14.00,2013-03-23 21:30:00,
2013-03-23 16:33:00,39.8,33.2,29.92,NE,43,7.0,7.0,77,0.01,,,0.01,VWS V14.00,2013-03-23 21:33:00,
2013-03-23 16:35:00,39.7,33.4,29.92,NNE,12,1.0,8.0,78,0.01,,,0.01,VWS V14.00,2013-03-23 21:35:00,
2013-03-23 16:38:00,39.6,33.0,29.92,NE,56,1.0,10.0,77,0.01,,,0.01,VWS V14.00,2013-03-23 21:38:00,
2013-03-23 16:40:00,39.6,33.3,29.92,ENE,73,2.0,10.0,78,0.01,,,0.01,VWS V14.00,2013-03-23 21:40:00,
2013-03-23 16:43:00,39.5,33.5,29.92,NE,41,4.0,9.0,79,0.01,,,0.01,VWS V14.00,2013-03-23 21:43:00,
2013-03-23 16:45:00,39.5,33.5,29.92,ENE,62,6.0,9.0,79,0.01,,,0.01,VWS V14.00,2013-03-23 21:45:00,
2013-03-23 16:48:00,39.4,33.8,29.92,NE,55,7.0,11.0,80,0.01,,,0.01,VWS V14.00,2013-03-23 21:48:00,
2013-03-23 16:50:00,39.3,34.0,29.92,East,84,2.0,11.0,81,0.01,,,0.01,VWS V14.00,2013-03-23 21:50:00,
2013-03-23 16:53:00,39.2,33.9,29.92,NE,38,10.0,10.0,81,0.02,,,0.02,VWS V14.00,2013-03-23 21:53:00,
2013-03-23 16:55:00,39.2,33.9,29.92,ENE,64,7.0,10.0,81,0.02,,,0.02,VWS V14.00,2013-03-23 21:55:00,
2013-03-23 16:58:00,39.0,33.4,29.92,ENE,61,2.0,14.0,80,0.03,,,0.03,VWS V14.00,2013-03-23 21:58:00,
2013-03-23 17:00:00,38.9,33.9,29.92,ENE,60,3.0,14.0,82,0.03,,,0.03,VWS V14.00,2013-03-23 22:00:00,
2013-03-23 17:03:00,38.7,33.4,29.92,ENE,58,11.0,12.0,81,0.04,,,0.04,VWS V14.00,2013-03-23 22:03:00,
2013-03-23 17:05:00,38.6,33.6,29.92,ENE,57,5.0,15.0,82,0.04,,,0.04,VWS V14.00,2013-03-23 22:05:00,
2013-03-23 17:08:00,38.3,33.6,29.92,NE,43,3.0,15.0,83,0.04,,,0.04,VWS V14.00,2013-03-23 22:08:00,
2013-03-23 17:10:00,38.2,33.5,29.92,NE,35,13.0,15.0,83,0.05,,,0.05,VWS V14.00,2013-03-23 22:10:00,
2013-03-23 17:13:00,37.9,33.5,29.92,NE,35,11.0,13.0,84,0.06,,,0.06,VWS V14.00,2013-03-23 22:13:00,
2013-03-23 17:15:00,37.8,33.4,29.91,NE,44,7.0,13.0,84,0.07,,,0.07,VWS V14.00,2013-03-23 22:15:00,
2013-03-23 17:18:00,37.5,33.4,29.91,ENE,65,9.0,14.0,85,0.08,,,0.08,VWS V14.00,2013-03-23 22:18:00,
2013-03-23 17:20:00,37.3,33.2,29.91,ENE,59,9.0,14.0,85,0.08,,,0.08,VWS V14.00,2013-03-23 22:20:00,
2013-03-23 17:23:00,37.0,33.2,29.91,ENE,60,8.0,12.0,86,0.10,,,0.10,VWS V14.00,2013-03-23 22:23:00,
2013-03-23 17:25:00,36.9,33.1,29.91,ENE,58,6.0,12.0,86,0.10,,,0.10,VWS V14.00,2013-03-23 22:25:00,
2013-03-23 17:28:00,36.7,33.2,29.91,East,91,5.0,11.0,87,0.09,,,0.10,VWS V14.00,2013-03-23 22:28:00,
2013-03-23 17:30:00,36.7,33.2,29.91,NNE,33,1.0,11.0,87,0.09,,,0.10,VWS V14.00,2013-03-23 22:30:00,
2013-03-23 17:33:00,36.5,33.3,29.91,ENE,66,8.0,10.0,88,0.10,,,0.11,VWS V14.00,2013-03-23 22:33:00,
2013-03-23 17:35:00,36.5,33.3,29.90,NE,41,4.0,13.0,88,0.10,,,0.11,VWS V14.00,2013-03-23 22:35:00,
2013-03-23 17:38:00,36.5,33.3,29.90,ENE,72,6.0,8.0,88,0.10,,,0.11,VWS V14.00,2013-03-23 22:38:00,
2013-03-23 17:40:00,36.5,33.3,29.90,ENE,59,2.0,10.0,88,0.10,,,0.11,VWS V14.00,2013-03-23 22:40:00,
2013-03-23 17:43:00,36.5,33.6,29.89,NE,47,3.0,8.0,89,0.11,,,0.12,VWS V14.00,2013-03-23 22:43:00,
2013-03-23 17:45:00,36.5,33.6,29.89,NE,54,4.0,8.0,89,0.11,,,0.12,VWS V14.00,2013-03-23 22:45:00,
2013-03-23 17:53:00,36.5,33.6,29.89,NE,52,3.0,3.0,89,0.00,,,0.13,VWS V14.00,2013-03-23 22:53:00,
2013-03-23 17:58:00,36.4,33.5,29.89,NNE,31,9.0,12.0,89,0.12,,,0.14,VWS V14.00,2013-03-23 22:58:00,
2013-03-23 18:00:00,36.3,33.4,29.89,ENE,58,8.0,13.0,89,0.12,,,0.14,VWS V14.00,2013-03-23 23:00:00,
2013-03-23 18:03:00,36.3,33.4,29.90,NE,51,5.0,11.0,89,0.12,,,0.15,VWS V14.00,2013-03-23 23:03:00,
2013-03-23 18:08:00,36.2,33.3,29.90,NE,42,12.0,12.0,89,0.12,,,0.16,VWS V14.00,2013-03-23 23:08:00,
2013-03-23 18:13:00,36.1,33.5,29.90,ENE,67,6.0,13.0,90,0.11,,,0.16,VWS V14.00,2013-03-23 23:13:00,
2013-03-23 18:18:00,36.2,33.6,29.90,ENE,68,7.0,12.0,90,0.10,,,0.17,VWS V14.00,2013-03-23 23:18:00,
2013-03-23 18:23:00,36.1,33.5,29.89,NE,39,5.0,15.0,90,0.09,,,0.17,VWS V14.00,2013-03-23 23:23:00,
2013-03-23 18:28:00,36.1,33.5,29.89,NE,40,7.0,16.0,90,0.08,,,0.18,VWS V14.00,2013-03-23 23:28:00,
2013-03-23 18:33:00,36.2,33.6,29.90,North,10,2.0,13.0,90,0.08,,,0.18,VWS V14.00,2013-03-23 23:33:00,
2013-03-23 18:38:00,36.2,33.6,29.90,NE,35,12.0,14.0,90,0.07,,,0.18,VWS V14.00,2013-03-23 23:38:00,
2013-03-23 18:43:00,36.2,33.6,29.90,NNE,27,8.0,13.0,90,0.07,,,0.18,VWS V14.00,2013-03-23 23:43:00,
2013-03-23 18:48:00,36.2,33.8,29.90,NE,55,8.0,10.0,91,0.07,,,0.19,VWS V14.00,2013-03-23 23:48:00,
2013-03-23 18:53:00,36.2,33.8,29.90,NE,55,5.0,11.0,91,0.06,,,0.19,VWS V14.00,2013-03-23 23:53:00,
2013-03-23 18:58:00,36.3,33.9,29.90,ENE,64,10.0,12.0,91,0.06,,,0.19,VWS V14.00,2013-03-23 23:58:00,
2013-03-23 19:03:00,36.2,33.8,29.91,NE,46,4.0,11.0,91,0.06,,,0.20,VWS V14.00,2013-03-24 00:03:00,
2013-03-23 19:08:00,36.2,33.8,29.92,NE,52,5.0,9.0,91,0.05,,,0.20,VWS V14.00,2013-03-24 00:08:00,
2013-03-23 19:13:00,36.2,33.8,29.91,NNE,19,0.0,10.0,91,0.04,,,0.20,VWS V14.00,2013-03-24 00:13:00,
2013-03-23 19:18:00,36.1,33.7,29.91,NE,38,12.0,12.0,91,0.04,,,0.20,VWS V14.00,2013-03-24 00:18:00,
2013-03-23 19:23:00,36.0,33.6,29.90,East,87,5.0,16.0,91,0.03,,,0.20,VWS V14.00,2013-03-24 00:23:00,
2013-03-23 19:28:00,35.9,33.5,29.90,North,355,2.0,10.0,91,0.03,,,0.20,VWS V14.00,2013-03-24 00:28:00,
2013-03-23 19:33:00,35.8,33.4,29.90,ENE,63,2.0,12.0,91,0.03,,,0.21,VWS V14.00,2013-03-24 00:33:00,
2013-03-23 19:38:00,35.7,33.3,29.90,NNE,24,7.0,11.0,91,0.03,,,0.21,VWS V14.00,2013-03-24 00:38:00,
2013-03-23 19:43:00,35.6,33.2,29.91,NNE,13,7.0,11.0,91,0.03,,,0.21,VWS V14.00,2013-03-24 00:43:00,
2013-03-23 19:48:00,35.5,33.1,29.91,North,350,10.0,12.0,91,0.03,,,0.22,VWS V14.00,2013-03-24 00:48:00,
2013-03-23 19:53:00,35.4,33.0,29.91,NE,43,8.0,16.0,91,0.04,,,0.23,VWS V14.00,2013-03-24 00:53:00,
2013-03-23 19:58:00,35.3,32.9,29.91,NE,36,5.0,12.0,91,0.04,,,0.23,VWS V14.00,2013-03-24 00:58:00,
2013-03-23 20:03:00,35.3,32.9,29.91,ENE,59,11.0,14.0,91,0.04,,,0.24,VWS V14.00,2013-03-24 01:03:00,
2013-03-23 20:08:00,35.2,32.8,29.91,NE,35,9.0,15.0,91,0.04,,,0.24,VWS V14.00,2013-03-24 01:08:00,
2013-03-23 20:13:00,35.0,32.6,29.91,NE,40,5.0,12.0,91,0.05,,,0.25,VWS V14.00,2013-03-24 01:13:00,
2013-03-23 20:18:00,34.8,32.5,29.91,NE,48,3.0,11.0,91,0.06,,,0.26,VWS V14.00,2013-03-24 01:18:00,
2013-03-23 20:23:00,34.5,32.2,29.92,NNE,29,4.0,10.0,91,0.06,,,0.26,VWS V14.00,2013-03-24 01:23:00,
2013-03-23 20:28:00,34.3,32.0,29.92,NNE,22,5.0,9.0,91,0.06,,,0.26,VWS V14.00,2013-03-24 01:28:00,
2013-03-23 20:33:00,34.1,31.8,29.91,NNE,29,5.0,14.0,91,0.05,,,0.26,VWS V14.00,2013-03-24 01:33:00,
2013-03-23 20:38:00,33.8,31.5,29.91,NNE,13,7.0,11.0,91,0.05,,,0.26,VWS V14.00,2013-03-24 01:38:00,
2013-03-23 20:43:00,33.6,31.3,29.91,NE,38,2.0,8.0,91,0.05,,,0.26,VWS V14.00,2013-03-24 01:43:00,
2013-03-23 20:48:00,33.4,31.1,29.90,NNE,31,5.0,12.0,91,0.04,,,0.26,VWS V14.00,2013-03-24 01:48:00,
2013-03-23 20:53:00,33.3,31.0,29.91,NNE,25,1.0,9.0,91,0.04,,,0.26,VWS V14.00,2013-03-24 01:53:00,
2013-03-23 20:58:00,33.2,30.9,29.91,NNE,15,5.0,9.0,91,0.03,,,0.26,VWS V14.00,2013-03-24 01:58:00,
2013-03-23 21:03:00,33.2,31.1,29.91,North,6,4.0,11.0,92,0.03,,,0.26,VWS V14.00,2013-03-24 02:03:00,
2013-03-23 21:08:00,33.2,31.1,29.91,ENE,59,5.0,9.0,92,0.02,,,0.26,VWS V14.00,2013-03-24 02:08:00,
2013-03-23 21:13:00,33.1,31.0,29.92,NW,319,4.0,8.0,92,0.01,,,0.26,VWS V14.00,2013-03-24 02:13:00,
2013-03-23 21:18:00,33.1,31.0,29.92,NNE,21,1.0,12.0,92,0.01,,,0.26,VWS V14.00,2013-03-24 02:18:00,
2013-03-23 21:23:00,33.2,31.1,29.93,NNW,343,4.0,8.0,92,0.00,,,0.26,VWS V14.00,2013-03-24 02:23:00,
2013-03-23 21:28:00,33.1,31.0,29.93,NNE,12,0.0,10.0,92,0.00,,,0.26,VWS V14.00,2013-03-24 02:28:00,
2013-03-23 21:33:00,33.1,31.0,29.94,NW,323,4.0,7.0,92,0.00,,,0.26,VWS V14.00,2013-03-24 02:33:00,
2013-03-23 21:38:00,33.1,31.0,29.94,North,349,5.0,10.0,92,0.00,,,0.26,VWS V14.00,2013-03-24 02:38:00,
2013-03-23 21:43:00,33.2,31.1,29.93,NNE,18,3.0,9.0,92,0.01,,,0.27,VWS V14.00,2013-03-24 02:43:00,
2013-03-23 21:48:00,33.2,31.1,29.92,North,360,4.0,13.0,92,0.01,,,0.27,VWS V14.00,2013-03-24 02:48:00,
2013-03-23 21:53:00,33.2,31.1,29.92,NE,39,10.0,14.0,92,0.01,,,0.27,VWS V14.00,2013-03-24 02:53:00,
2013-03-23 21:58:00,33.2,31.1,29.92,NNE,21,3.0,12.0,92,0.01,,,0.27,VWS V14.00,2013-03-24 02:58:00,
2013-03-23 22:05:00,33.2,31.1,29.93,NNE,22,4.0,12.0,92,0.01,,,0.27,VWS V14.00,2013-03-24 03:05:00,
2013-03-23 22:10:00,33.2,31.1,29.94,NNE,22,5.0,10.0,92,0.01,,,0.27,VWS V14.00,2013-03-24 03:10:00,
2013-03-23 22:15:00,33.2,31.4,29.94,North,0,4.0,10.0,93,0.01,,,0.27,VWS V14.00,2013-03-24 03:15:00,
2013-03-23 22:20:00,33.2,31.4,29.94,North,0,5.0,11.0,93,0.01,,,0.27,VWS V14.00,2013-03-24 03:20:00,
2013-03-23 22:25:00,33.2,31.4,29.94,North,0,6.0,11.0,93,0.01,,,0.27,VWS V14.00,2013-03-24 03:25:00,
2013-03-23 22:30:00,33.2,31.4,29.96,NNW,338,5.0,11.0,93,0.01,,,0.27,VWS V14.00,2013-03-24 03:30:00,
2013-03-23 22:35:00,33.1,31.3,29.95,North,0,5.0,10.0,93,0.01,,,0.27,VWS V14.00,2013-03-24 03:35:00,
2013-03-23 22:40:00,33.1,31.3,29.95,North,0,5.0,9.0,93,0.01,,,0.27,VWS V14.00,2013-03-24 03:40:00,
2013-03-23 22:45:00,33.1,31.3,29.95,NNE,22,4.0,10.0,93,0.00,,,0.27,VWS V14.00,2013-03-24 03:45:00,
2013-03-23 22:50:00,33.1,31.3,29.94,NNE,22,5.0,11.0,93,0.00,,,0.27,VWS V14.00,2013-03-24 03:50:00,
2013-03-23 22:55:00,33.1,31.3,29.94,NNE,22,6.0,11.0,93,0.00,,,0.27,VWS V14.00,2013-03-24 03:55:00,
2013-03-23 23:00:00,33.0,31.2,29.94,NNE,22,5.0,10.0,93,0.00,,,0.27,VWS V14.00,2013-03-24 04:00:00,
2013-03-23 23:05:00,33.0,31.2,29.93,NNE,22,5.0,10.0,93,0.00,,,0.27,VWS V14.00,2013-03-24 04:05:00,
2013-03-23 23:10:00,33.0,31.2,29.92,NNE,22,6.0,11.0,93,0.00,,,0.27,VWS V14.00,2013-03-24 04:10:00,
2013-03-23 23:15:00,33.0,31.2,29.92,North,0,5.0,9.0,93,0.00,,,0.27,VWS V14.00,2013-03-24 04:15:00,
2013-03-23 23:20:00,32.9,31.1,29.92,NNE,22,5.0,12.0,93,0.00,,,0.27,VWS V14.00,2013-03-24 04:20:00,
2013-03-23 23:25:00,33.0,31.2,29.91,NNE,22,5.0,11.0,93,0.00,,,0.27,VWS V14.00,2013-03-24 04:25:00,
2013-03-23 23:30:00,33.0,31.2,29.91,NNE,22,6.0,13.0,93,0.00,,,0.27,VWS V14.00,2013-03-24 04:30:00,
2013-03-23 23:35:00,33.0,31.2,29.90,NNE,22,5.0,10.0,93,0.00,,,0.27,VWS V14.00,2013-03-24 04:35:00,
2013-03-23 23:40:00,33.0,31.2,29.90,NE,45,6.0,12.0,93,0.00,,,0.27,VWS V14.00,2013-03-24 04:40:00,
2013-03-23 23:45:00,33.0,31.2,29.88,NNE,22,5.0,13.0,93,0.00,,,0.27,VWS V14.00,2013-03-24 04:45:00,
2013-03-23 23:50:00,33.0,31.2,29.87,NE,45,7.0,13.0,93,0.00,,,0.27,VWS V14.00,2013-03-24 04:50:00,
2013-03-23 23:55:00,33.1,31.3,29.86,NE,45,8.0,19.0,93,0.00,,,0.27,VWS V14.00,2013-03-24 04:55:00,